Terminal Aerodrome Forecast
Issued by NWS Green Bay, WI

Home | Current Version | Previous Version | Graphics & Text | Print | Product List | Glossary On
Versions: 1 2 3 4 5 6 7 8 9 10 11 12 13 14 15 16 17 18 19 20 21 22 23 24 25 26 27 28 29 30 31 32 33 34 35 36 37 38 39 40 41
000
FTUS43 KGRB 131400 AAA
TAFGRB
TAF AMD
KGRB 131426Z 1314/1412 36009KT 6SM BR OVC005
     FM131600 01009KT P6SM OVC007
     FM131800 03010G18KT P6SM SCT006 OVC012
      TEMPO 1321/1324 3SM -RA BR OVC006
     FM140000 02015G22KT 4SM -RA BR OVC005
     FM140700 35018G28KT 2SM -RASN OVC005=

USA.gov is the U.S. government's official web portal to all federal, state and local government web resources and services.